Welsh Run, Pennsylvania
Current Conditions -  °F | °C
As of 2:53 PM on Wednesday 17 Dec 2014 (Local Time) from KHGR Reporting Station
Overcast Overcast  
Wind Chill: 39°   Ceiling: 4500
Heat Index: 46°   Visibility: 10mi
Dew Point: 26°   Wind: 18mph
Humidity: 46%   Direction: 290°WNW
Pressure: 29.99"   Gusts: NA
Location:  39.7874°N, 77.754°W
Report Text: KHGR 171953Z 29016KT 10SM OVC045 08/M03 A2999 RMK AO2 SLP168 T00781033
Loading
Personal Weather Stations






























Interactive Weather Map New forecast layout! Learn more

10-Day Weather Forecast

Advertisements
Track Severe Weather on mobile